Time;durP1;ratioP1;P1;durP2;ratioP2;P2;SDS_P1;SDS_P2;PMS_P1;PMS_P2;Temp;Humidity;BMP_temperature;BMP_pressure;BME280_temperature;BME280_humidity;BME280_pressure;Samples;Min_cycle;Max_cycle;Signal;HPM_P1;HPM_P2
2022/06/30 00:00:46;;;;;;;3.00;2.60;;;;;;;17.27;100.00;100477.53;5033149;28;20580;-72
2022/06/30 00:03:13;;;;;;;2.23;2.03;;;;;;;17.23;100.00;100482.13;5024177;28;20254;-72
2022/06/30 00:05:40;;;;;;;2.90;2.60;;;;;;;17.17;100.00;100477.22;5030390;28;20271;-72
2022/06/30 00:08:07;;;;;;;2.57;2.37;;;;;;;17.22;100.00;100483.09;5032482;28;20318;-72
2022/06/30 00:10:33;;;;;;;2.53;2.20;;;;;;;17.18;100.00;100486.81;5031017;28;20200;-72
2022/06/30 00:12:59;;;;;;;2.43;2.23;;;;;;;17.24;100.00;100481.22;5031968;28;20222;-72
2022/06/30 00:15:26;;;;;;;4.23;2.40;;;;;;;17.22;100.00;100483.09;5026962;28;20226;-72
2022/06/30 00:17:54;;;;;;;2.60;2.30;;;;;;;17.19;100.00;100477.97;5030156;28;20214;-72
2022/06/30 00:20:21;;;;;;;2.93;2.60;;;;;;;17.29;100.00;100478.28;5026260;28;20274;-72
2022/06/30 00:22:47;;;;;;;2.30;2.10;;;;;;;17.30;100.00;100478.22;5028909;28;20215;-72
2022/06/30 00:25:14;;;;;;;2.80;2.60;;;;;;;17.25;100.00;100482.88;5027385;28;20208;-72
2022/06/30 00:27:41;;;;;;;2.93;2.50;;;;;;;17.27;100.00;100473.09;5031177;28;20200;-73
2022/06/30 00:30:09;;;;;;;3.27;2.80;;;;;;;17.31;100.00;100479.09;5011778;28;20224;-73
2022/06/30 00:32:35;;;;;;;2.40;2.20;;;;;;;17.32;100.00;100480.75;5023348;28;20439;-72
2022/06/30 00:35:03;;;;;;;3.87;2.47;;;;;;;17.33;100.00;100471.94;5026424;28;20216;-73
2022/06/30 00:37:30;;;;;;;3.10;2.53;;;;;;;17.34;100.00;100474.50;5026975;28;20200;-73
2022/06/30 00:39:56;;;;;;;2.60;2.40;;;;;;;17.40;100.00;100471.50;5031370;28;20215;-73
2022/06/30 00:42:23;;;;;;;2.80;2.60;;;;;;;17.40;100.00;100473.28;5026983;28;20291;-73
2022/06/30 00:44:50;;;;;;;2.60;2.40;;;;;;;17.39;100.00;100479.47;5026496;28;20199;-72
2022/06/30 00:47:16;;;;;;;3.47;2.43;;;;;;;17.37;100.00;100476.09;5024623;28;20207;-72
2022/06/30 00:49:42;;;;;;;2.57;2.30;;;;;;;17.46;100.00;100475.56;5022849;28;20193;-72
2022/06/30 00:52:12;;;;;;;2.73;2.53;;;;;;;17.44;100.00;100481.88;5028776;28;20224;-72
2022/06/30 00:54:40;;;;;;;2.50;2.30;;;;;;;17.47;100.00;100473.78;5028556;28;20225;-73
2022/06/30 00:57:08;;;;;;;2.53;2.33;;;;;;;17.49;100.00;100480.66;5029041;28;20254;-73
2022/06/30 00:59:37;;;;;;;2.77;2.57;;;;;;;17.49;100.00;100482.44;5028137;28;20197;-73
2022/06/30 01:02:05;;;;;;;4.50;2.70;;;;;;;17.59;100.00;100483.63;5029092;28;20242;-73
2022/06/30 01:04:34;;;;;;;2.47;2.27;;;;;;;17.55;100.00;100480.31;5027293;28;20280;-72
2022/06/30 01:07:01;;;;;;;2.80;2.20;;;;;;;17.60;100.00;100485.31;5027809;28;20737;-72
2022/06/30 01:15:01;;;;;;;2.73;2.33;;;;;;;17.66;100.00;100477.06;5028916;28;20211;-72
2022/06/30 01:17:27;;;;;;;2.80;2.60;;;;;;;17.67;100.00;100483.16;5021868;28;20196;-72
2022/06/30 01:19:54;;;;;;;2.80;2.50;;;;;;;17.64;100.00;100468.38;5029286;28;20279;-72
2022/06/30 01:22:23;;;;;;;2.90;2.70;;;;;;;17.55;100.00;100466.28;5029454;28;20220;-72
2022/06/30 01:24:49;;;;;;;3.07;2.77;;;;;;;17.50;100.00;100461.28;5028445;28;20192;-71
2022/06/30 01:27:16;;;;;;;3.53;3.07;;;;;;;17.53;100.00;100462.88;5026159;28;20199;-71
2022/06/30 01:29:42;;;;;;;3.60;3.27;;;;;;;17.55;100.00;100458.38;5027205;28;20211;-71
2022/06/30 01:32:09;;;;;;;4.43;3.53;;;;;;;17.52;100.00;100454.13;5022881;28;20247;-71
2022/06/30 01:34:35;;;;;;;4.57;2.93;;;;;;;17.46;100.00;100451.84;5027923;28;20224;-71
2022/06/30 01:37:02;;;;;;;5.60;3.63;;;;;;;17.48;100.00;100449.13;5026524;28;20200;-71
2022/06/30 01:39:30;;;;;;;3.37;3.07;;;;;;;17.47;100.00;100440.38;5025547;28;20200;-71
2022/06/30 01:41:56;;;;;;;4.30;3.07;;;;;;;17.45;100.00;100441.38;5024250;28;20262;-71
2022/06/30 01:44:23;;;;;;;3.63;3.10;;;;;;;17.48;100.00;100436.78;5025064;28;20199;-71
2022/06/30 01:46:50;;;;;;;4.57;3.00;;;;;;;17.44;100.00;100437.06;5029897;28;20213;-71
2022/06/30 01:49:18;;;;;;;3.70;2.90;;;;;;;17.42;100.00;100432.72;5024067;28;20204;-71
2022/06/30 01:51:44;;;;;;;5.13;3.40;;;;;;;17.44;100.00;100447.59;5029883;28;20207;-71
2022/06/30 01:54:11;;;;;;;3.60;2.70;;;;;;;17.39;100.00;100442.59;5024715;28;20211;-71
2022/06/30 01:56:39;;;;;;;3.47;3.17;;;;;;;17.33;100.00;100448.22;5024818;28;20208;-71
2022/06/30 01:59:07;;;;;;;3.37;3.07;;;;;;;17.30;100.00;100441.31;5011695;28;20203;-71
2022/06/30 02:01:35;;;;;;;4.70;3.40;;;;;;;17.27;100.00;100449.41;5029727;28;20281;-71
2022/06/30 02:06:43;;;;;;;5.97;3.23;;;;;;;17.19;100.00;100447.22;5019911;28;20210;-70
2022/06/30 02:09:09;;;;;;;4.80;2.87;;;;;;;17.22;100.00;100436.50;5024967;28;20212;-70
2022/06/30 02:11:36;;;;;;;3.90;3.10;;;;;;;17.19;100.00;100435.84;5017572;28;20200;-70
2022/06/30 02:14:04;;;;;;;6.60;3.63;;;;;;;17.13;100.00;100429.13;5023316;28;20197;-70
2022/06/30 02:16:31;;;;;;;3.33;3.00;;;;;;;17.10;100.00;100439.84;5026728;28;20234;-70
2022/06/30 02:18:57;;;;;;;5.27;3.13;;;;;;;17.12;100.00;100424.78;5026258;28;20196;-71
2022/06/30 02:21:23;;;;;;;4.03;3.30;;;;;;;17.19;100.00;100428.78;5023297;28;20200;-70
2022/06/30 02:23:51;;;;;;;3.60;3.13;;;;;;;17.22;100.00;100433.03;5021874;28;20223;-70
2022/06/30 02:26:17;;;;;;;4.87;3.57;;;;;;;17.21;100.00;100433.97;5022187;28;20266;-70
2022/06/30 02:28:44;;;;;;;3.13;2.83;;;;;;;17.19;100.00;100435.84;5026098;28;20652;-70
2022/06/30 02:31:12;;;;;;;6.27;3.60;;;;;;;17.20;100.00;100438.38;5029020;28;20200;-70
2022/06/30 02:33:39;;;;;;;4.07;3.57;;;;;;;17.25;100.00;100440.72;5023406;28;20371;-70
2022/06/30 02:36:06;;;;;;;5.53;3.80;;;;;;;17.27;100.00;100440.66;5023659;28;20228;-70
2022/06/30 02:38:32;;;;;;;7.97;3.73;;;;;;;17.22;100.00;100435.66;5024857;28;20215;-70
2022/06/30 02:40:59;;;;;;;3.60;3.30;;;;;;;17.12;100.00;100437.97;5023931;28;20560;-70
2022/06/30 02:43:25;;;;;;;4.77;3.30;;;;;;;17.14;100.00;100443.97;5027488;28;20220;-70
2022/06/30 02:45:52;;;;;;;6.17;3.50;;;;;;;17.08;100.00;100446.09;5025445;28;20209;-70
2022/06/30 02:48:19;;;;;;;4.30;3.90;;;;;;;17.07;100.00;100450.53;5025827;28;20207;-70
2022/06/30 02:50:46;;;;;;;7.07;4.20;;;;;;;17.02;100.00;100448.16;5027488;28;20203;-70
2022/06/30 02:53:12;;;;;;;4.20;3.80;;;;;;;16.99;100.00;100443.06;5022303;28;20579;-71
2022/06/30 02:55:39;;;;;;;4.07;3.60;;;;;;;17.01;100.00;100438.56;5028979;28;20687;-70
2022/06/30 02:58:05;;;;;;;5.00;3.77;;;;;;;17.03;100.00;100435.84;5024726;28;20303;-70
2022/06/30 03:00:31;;;;;;;4.20;3.70;;;;;;;17.00;100.00;100430.75;5034620;28;20215;-70
2022/06/30 03:02:58;;;;;;;4.23;3.83;;;;;;;16.95;100.00;100431.00;5025849;28;20222;-70
2022/06/30 03:05:26;;;;;;;5.27;3.47;;;;;;;17.00;100.00;100434.22;5028278;28;20261;-71
2022/06/30 03:07:52;;;;;;;4.23;3.63;;;;;;;17.08;100.00;100438.19;5030047;28;20207;-70
2022/06/30 03:10:19;;;;;;;5.10;3.97;;;;;;;16.97;100.00;100436.19;5029137;28;20203;-70
2022/06/30 03:12:45;;;;;;;6.47;3.37;;;;;;;16.84;100.00;100442.13;5034097;28;20716;-70
2022/06/30 03:15:12;;;;;;;4.57;3.70;;;;;;;16.85;100.00;100445.63;5022599;28;20220;-70
2022/06/30 03:17:38;;;;;;;4.50;4.10;;;;;;;16.91;100.00;100441.81;5025330;28;20203;-70
2022/06/30 03:20:06;;;;;;;4.70;3.40;;;;;;;16.97;100.00;100438.81;5025093;28;20204;-71
2022/06/30 03:22:33;;;;;;;4.37;3.97;;;;;;;16.88;100.00;100440.16;5029507;28;20219;-71
2022/06/30 03:25:00;;;;;;;4.60;4.03;;;;;;;16.83;100.00;100437.81;5022798;28;20245;-70
2022/06/30 03:27:26;;;;;;;4.63;4.13;;;;;;;16.81;100.00;100437.00;5024972;28;20593;-71
2022/06/30 03:29:53;;;;;;;4.43;3.80;;;;;;;16.93;100.00;100445.19;5031087;28;20198;-70
2022/06/30 03:32:19;;;;;;;4.13;3.73;;;;;;;16.90;100.00;100450.63;5026406;28;20231;-70
2022/06/30 03:34:46;;;;;;;5.83;4.33;;;;;;;16.88;100.00;100445.44;5027489;28;20211;-70
2022/06/30 03:37:12;;;;;;;4.50;3.97;;;;;;;16.88;100.00;100447.22;5025333;28;20649;-70
2022/06/30 03:39:40;;;;;;;6.07;4.30;;;;;;;16.83;100.00;100447.44;5027787;28;20207;-70
2022/06/30 03:42:07;;;;;;;4.57;4.00;;;;;;;16.78;100.00;100446.84;5024665;28;20713;-70
2022/06/30 03:44:34;;;;;;;5.97;4.50;;;;;;;16.79;100.00;100453.81;5030833;28;20254;-70
2022/06/30 03:47:00;;;;;;;4.50;3.90;;;;;;;16.86;100.00;100444.69;5028867;28;20675;-71
2022/06/30 03:49:27;;;;;;;7.33;4.63;;;;;;;16.96;100.00;100451.13;5028016;28;20200;-70
2022/06/30 03:51:53;;;;;;;6.23;4.60;;;;;;;17.04;100.00;100445.44;5028775;28;20219;-70
2022/06/30 03:54:19;;;;;;;5.77;4.43;;;;;;;17.12;100.00;100445.84;5029141;28;20207;-70
2022/06/30 03:56:48;;;;;;;6.67;4.53;;;;;;;17.13;100.00;100452.84;5022471;28;20266;-70
2022/06/30 03:59:14;;;;;;;5.50;4.43;;;;;;;17.17;100.00;100459.63;5028712;28;20200;-70
2022/06/30 04:01:41;;;;;;;5.27;4.67;;;;;;;17.13;100.00;100457.25;5033150;28;20680;-70
2022/06/30 04:04:07;;;;;;;5.23;4.67;;;;;;;17.12;100.00;100456.41;5031844;28;20200;-70
2022/06/30 04:06:34;;;;;;;5.40;4.67;;;;;;;17.11;100.00;100459.13;5028372;28;20195;-70
2022/06/30 04:09:00;;;;;;;6.10;4.83;;;;;;;17.11;100.00;100457.31;5022481;28;20207;-70
2022/06/30 04:11:26;;;;;;;7.77;5.50;;;;;;;17.13;100.00;100458.09;5023912;28;20200;-70
2022/06/30 04:13:55;;;;;;;7.27;5.37;;;;;;;17.13;100.00;100458.09;5024953;28;20227;-70
2022/06/30 04:16:21;;;;;;;5.53;5.00;;;;;;;17.18;100.00;100456.06;5027436;28;20599;-70
2022/06/30 04:18:47;;;;;;;6.53;5.17;;;;;;;17.21;100.00;100455.03;5031532;28;20200;-70
2022/06/30 04:21:16;;;;;;;7.53;5.60;;;;;;;17.25;100.00;100460.97;5026143;28;20290;-70
2022/06/30 04:23:43;;;;;;;7.60;5.10;;;;;;;17.28;100.00;100455.53;5026374;28;20227;-70
2022/06/30 04:26:09;;;;;;;6.10;5.10;;;;;;;17.37;100.00;100455.00;5029846;28;20238;-70
2022/06/30 04:28:36;;;;;;;6.47;5.47;;;;;;;17.38;100.00;100457.56;5028313;28;20207;-70
2022/06/30 04:33:48;;;;;;;6.80;5.13;;;;;;;17.42;100.00;100455.59;5029732;28;20227;-71
2022/06/30 04:36:14;;;;;;;6.73;5.40;;;;;;;17.42;100.00;100464.34;5023875;28;20289;-70
2022/06/30 04:38:41;;;;;;;6.60;5.53;;;;;;;17.42;100.00;100456.44;5028669;28;20231;-70
2022/06/30 04:41:25;;;;;;;6.47;5.60;;;;;;;17.48;100.00;100459.66;5028419;28;20204;-70
2022/06/30 04:43:51;;;;;;;5.77;5.07;;;;;;;17.52;100.00;100454.13;5028241;28;20704;-71
2022/06/30 04:46:19;;;;;;;6.07;5.37;;;;;;;17.57;100.00;100457.34;5030152;28;20200;-70
2022/06/30 04:48:46;;;;;;;6.13;5.40;;;;;;;17.61;100.00;100458.03;5021869;28;20192;-71
2022/06/30 04:51:12;;;;;;;8.50;5.67;;;;;;;17.65;100.00;100458.69;5022960;28;20236;-70
2022/06/30 04:53:40;;;;;;;6.57;5.53;;;;;;;17.66;100.00;100450.69;5025828;28;20223;-71
2022/06/30 04:56:06;;;;;;;8.93;5.80;;;;;;;17.65;100.00;100448.16;5027375;28;20635;-71
2022/06/30 04:58:33;;;;;;;6.43;5.73;;;;;;;17.63;100.00;100452.66;5024882;28;20262;-71
2022/06/30 05:00:59;;;;;;;7.10;5.67;;;;;;;17.64;100.00;100456.97;5028124;28;20657;-71
2022/06/30 05:03:27;;;;;;;7.10;5.93;;;;;;;17.70;100.00;100454.00;5012739;28;20234;-71
2022/06/30 05:05:54;;;;;;;6.83;5.90;;;;;;;17.72;100.00;100457.38;5021898;28;20443;-71
2022/06/30 05:08:21;;;;;;;8.57;5.40;;;;;;;17.78;100.00;100462.28;5024487;28;20208;-70
2022/06/30 05:10:47;;;;;;;8.43;6.57;;;;;;;17.83;100.00;100456.75;5030068;28;20200;-71
2022/06/30 05:13:13;;;;;;;9.87;6.73;;;;;;;17.85;100.00;100455.72;5018227;28;20234;-71
2022/06/30 05:15:40;;;;;;;8.93;6.50;;;;;;;17.79;100.00;100466.63;5031500;28;20208;-71
2022/06/30 05:18:06;;;;;;;6.40;5.77;;;;;;;17.79;100.00;100451.66;5026823;28;20235;-71
2022/06/30 05:20:34;;;;;;;7.60;6.23;;;;;;;17.85;100.00;100445.16;5020922;28;20205;-71
2022/06/30 05:23:02;;;;;;;8.97;5.80;;;;;;;17.87;100.00;100453.88;5027942;28;20234;-71
2022/06/30 05:28:13;;;;;;;6.73;6.03;;;;;;;17.96;100.00;100457.78;5024715;28;20227;-71
2022/06/30 05:30:41;;;;;;;7.97;5.83;;;;;;;18.06;100.00;100455.41;5027776;28;20200;-71
2022/06/30 05:33:08;;;;;;;7.27;6.53;;;;;;;18.12;100.00;100449.78;5025656;28;20220;-71
2022/06/30 05:35:36;;;;;;;10.77;6.73;;;;;;;18.17;100.00;100450.34;5024733;28;20220;-71
2022/06/30 05:38:02;;;;;;;8.20;6.97;;;;;;;18.26;100.00;100455.06;5028642;28;20673;-71
2022/06/30 05:40:29;;;;;;;8.97;6.93;;;;;;;18.29;100.00;100459.28;5029400;28;20211;-71
2022/06/30 05:42:56;;;;;;;9.33;6.50;;;;;;;18.32;100.00;100459.94;5024926;28;20250;-71
2022/06/30 05:45:22;;;;;;;9.07;7.17;;;;;;;18.35;100.00;100445.75;5023628;28;20215;-71
2022/06/30 05:47:50;;;;;;;10.30;7.37;;;;;;;18.43;100.00;100450.53;5027647;28;20230;-71
2022/06/30 05:50:17;;;;;;;7.80;6.60;;;;;;;18.49;100.00;100452.81;5023657;28;20197;-71
2022/06/30 05:52:45;;;;;;;8.00;6.70;;;;;;;18.55;100.00;100461.16;5023801;28;20219;-71
2022/06/30 05:55:12;;;;;;;7.47;6.70;;;;;;;18.62;100.00;100455.53;5026421;28;20665;-71
2022/06/30 05:57:53;;;;;;;9.30;7.63;;;;;;;18.70;100.00;100455.91;5022884;28;20239;-71
2022/06/30 06:00:20;;;;;;;9.10;7.13;;;;;;;18.76;100.00;100462.59;5025249;28;20203;-71
2022/06/30 06:02:47;;;;;;;8.87;6.87;;;;;;;18.87;100.00;100471.56;5028893;28;20227;-71
2022/06/30 06:05:13;;;;;;;8.07;6.83;;;;;;;18.97;100.00;100477.09;5026301;28;20200;-71
2022/06/30 06:07:40;;;;;;;7.97;6.00;;;;;;;19.04;100.00;100483.69;5023867;28;20195;-71
2022/06/30 06:10:09;;;;;;;7.83;6.57;;;;;;;19.07;100.00;100482.66;5022436;28;20208;-71
2022/06/30 06:12:36;;;;;;;6.43;5.77;;;;;;;19.13;100.00;100487.53;5024271;28;20711;-71
2022/06/30 06:15:03;;;;;;;9.70;6.40;;;;;;;19.24;100.00;100485.06;5027362;28;20228;-71
2022/06/30 06:17:30;;;;;;;9.40;6.47;;;;;;;19.23;100.00;100483.34;5018872;28;20220;-71
2022/06/30 06:19:57;;;;;;;9.53;6.37;;;;;;;19.24;100.00;100487.72;5024028;28;20257;-71
2022/06/30 06:22:23;;;;;;;8.83;6.73;;;;;;;19.36;100.00;100482.56;5021216;28;20231;-71
2022/06/30 06:24:50;;;;;;;8.53;6.30;;;;;;;19.41;100.00;100489.22;5021342;28;20202;-71
2022/06/30 06:27:17;;;;;;;7.83;6.60;;;;;;;19.44;100.00;100499.63;5021430;28;20201;-71
2022/06/30 06:29:44;;;;;;;7.83;6.73;;;;;;;19.41;100.00;100501.63;5027608;28;20204;-71
2022/06/30 06:32:10;;;;;;;7.33;6.50;;;;;;;19.49;100.00;100499.34;5027170;28;20232;-70
2022/06/30 06:34:37;;;;;;;8.07;6.17;;;;;;;19.58;100.00;100504.00;5018859;28;20201;-71
2022/06/30 06:37:03;;;;;;;7.87;6.67;;;;;;;19.58;100.00;100503.16;5019505;28;20222;-70
2022/06/30 06:39:30;;;;;;;8.87;7.30;;;;;;;19.43;100.00;100516.41;5020555;28;20196;-70
2022/06/30 06:41:56;;;;;;;8.33;7.13;;;;;;;19.35;100.00;100509.94;5026756;28;20223;-70
2022/06/30 06:44:25;;;;;;;10.20;7.70;;;;;;;19.27;100.00;100515.72;5024633;28;20192;-71
2022/06/30 06:46:51;;;;;;;13.40;8.87;;;;;;;19.29;100.00;100509.41;5028555;28;20700;-71
2022/06/30 06:49:17;;;;;;;10.70;8.43;;;;;;;19.33;100.00;100503.91;5021867;28;20200;-71
2022/06/30 06:51:44;;;;;;;13.17;9.23;;;;;;;19.39;100.00;100507.00;5028634;28;20196;-71
2022/06/30 06:54:10;;;;;;;13.90;9.50;;;;;;;19.51;100.00;100505.34;5021212;28;20245;-70
2022/06/30 06:56:37;;;;;;;11.93;9.33;;;;;;;19.64;100.00;100498.28;5022136;28;20208;-71
2022/06/30 06:59:04;;;;;;;11.10;8.43;;;;;;;19.78;100.00;100501.88;5024877;28;20452;-71
2022/06/30 07:01:31;;;;;;;10.50;8.47;;;;;;;19.92;100.00;100506.25;5021572;28;20670;-71
2022/06/30 07:03:58;;;;;;;11.70;9.07;;;;;;;19.96;100.00;100513.00;5023821;28;20200;-70
2022/06/30 07:06:24;;;;;;;10.57;8.20;;;;;;;20.01;100.00;100511.75;5026703;28;20693;-71
2022/06/30 07:08:51;;;;;;;10.33;8.70;;;;;;;19.93;100.00;100505.28;5024880;28;20200;-71
2022/06/30 07:11:18;;;;;;;13.70;8.10;;;;;;;20.03;100.00;100509.00;5025695;28;20535;-71
2022/06/30 07:13:44;;;;;;;11.80;8.37;;;;;;;20.03;100.00;100501.06;5025042;28;20224;-71
2022/06/30 07:16:11;;;;;;;11.93;8.43;;;;;;;20.08;100.00;100504.25;5022605;28;20216;-71
2022/06/30 07:18:39;;;;;;;13.00;9.07;;;;;;;20.27;100.00;100503.00;5022220;28;20284;-71
2022/06/30 07:21:06;;;;;;;10.10;8.07;;;;;;;20.27;100.00;100497.72;5020137;28;20223;-71
2022/06/30 07:23:32;;;;;;;12.20;9.10;;;;;;;20.37;100.00;100496.13;5021920;28;20220;-71
2022/06/30 07:25:58;;;;;;;12.07;8.60;;;;;;;20.42;100.00;100501.91;5030470;28;20199;-71
2022/06/30 07:28:25;;;;;;;9.73;8.17;;;;;;;20.47;100.00;100494.50;5024919;28;20212;-71
2022/06/30 07:30:52;;;;;;;12.93;8.77;;;;;;;20.56;100.00;100501.81;5023579;28;20692;-71
2022/06/30 07:33:18;;;;;;;9.13;8.10;;;;;;;20.66;100.00;100504.69;5022538;28;20223;-71
2022/06/30 07:35:46;;;;;;;12.63;8.30;;;;;;;20.74;100.00;100499.72;5021653;28;20235;-71
2022/06/30 07:38:13;;;;;;;10.23;8.47;;;;;;;20.82;100.00;100499.16;5025408;28;20195;-71
2022/06/30 07:40:39;;;;;;;9.97;7.77;;;;;;;20.94;100.00;100506.22;5024754;28;20204;-71
2022/06/30 07:43:06;;;;;;;12.53;7.93;;;;;;;21.07;100.00;100508.88;5029564;28;20224;-71
2022/06/30 07:45:32;;;;;;;10.52;8.13;;;;;;;21.17;100.00;100512.53;5021621;28;20197;-71
2022/06/30 07:47:59;;;;;;;7.53;6.70;;;;;;;21.09;100.00;100520.19;5029877;28;20188;-71
2022/06/30 07:50:25;;;;;;;7.88;7.05;;;;;;;21.14;100.00;100526.03;5026024;28;20676;-71
2022/06/30 07:52:53;;;;;;;7.18;6.20;;;;;;;21.16;100.00;100523.25;5031785;28;20234;-71
2022/06/30 07:55:19;;;;;;;7.22;6.55;;;;;;;21.20;100.00;100516.75;5023932;28;20200;-73
2022/06/30 07:57:48;;;;;;;7.72;6.88;;;;;;;21.16;100.00;100531.22;5030787;28;20284;-73
2022/06/30 08:00:15;;;;;;;7.72;6.22;;;;;;;21.31;100.00;100532.72;5028447;28;20242;-73
2022/06/30 08:02:41;;;;;;;9.18;5.85;;;;;;;21.32;100.00;100525.66;5022025;28;20602;-73
2022/06/30 08:05:09;;;;;;;6.72;6.03;;;;;;;21.38;100.00;100530.47;5027830;28;20295;-71
2022/06/30 08:07:36;;;;;;;6.53;5.93;;;;;;;21.45;100.00;100529.06;5029426;28;20596;-71
2022/06/30 08:10:04;;;;;;;6.40;5.57;;;;;;;21.56;100.00;100525.66;5032888;28;20203;-71
2022/06/30 08:12:33;;;;;;;6.80;5.90;;;;;;;21.50;100.00;100528.78;5021737;28;20220;-71
2022/06/30 08:14:59;;;;;;;5.97;5.30;;;;;;;21.58;100.00;100525.56;5029319;28;20208;-71
2022/06/30 08:17:25;;;;;;;6.00;5.10;;;;;;;21.52;100.00;100532.16;5025097;28;20213;-71
2022/06/30 08:19:53;;;;;;;5.13;4.57;;;;;;;21.42;100.00;100536.41;5021320;28;20673;-71
2022/06/30 08:22:19;;;;;;;6.68;4.45;;;;;;;21.48;100.00;100534.19;5028433;28;20651;-71
2022/06/30 08:24:45;;;;;;;6.38;4.82;;;;;;;21.52;100.00;100538.31;5025944;28;20212;-71
2022/06/30 08:27:13;;;;;;;6.88;5.18;;;;;;;21.57;100.00;100545.09;5027745;28;20211;-71
2022/06/30 08:29:39;;;;;;;5.28;4.65;;;;;;;21.62;100.00;100542.91;5026626;28;20208;-70
2022/06/30 08:32:07;;;;;;;6.72;5.25;;;;;;;21.75;100.00;100538.41;5023577;28;20220;-71
2022/06/30 08:34:33;;;;;;;6.40;5.75;;;;;;;21.74;100.00;100542.88;5024506;28;20200;-71
2022/06/30 08:37:00;;;;;;;6.70;5.10;;;;;;;21.77;100.00;100535.66;5028128;28;20220;-71
2022/06/30 08:42:14;;;;;;;6.03;5.32;;;;;;;21.79;100.00;100541.69;5028321;28;20220;-71
2022/06/30 08:44:43;;;;;;;5.50;4.85;;;;;;;21.91;100.00;100530.16;5023721;28;20200;-71
2022/06/30 08:47:11;;;;;;;7.38;6.40;;;;;;;21.89;100.00;100532.91;5025783;28;20214;-71
2022/06/30 08:49:38;;;;;;;6.95;5.63;;;;;;;22.01;100.00;100538.28;5020593;28;20681;-70
2022/06/30 08:52:07;;;;;;;7.47;5.55;;;;;;;22.03;100.00;100533.69;5023632;28;20676;-70
2022/06/30 08:54:38;;;;;;;7.50;5.63;;;;;;;22.27;100.00;100528.34;5024352;28;20207;-70
2022/06/30 08:57:05;;;;;;;6.82;6.13;;;;;;;22.29;100.00;100537.03;5028483;28;20247;-71
2022/06/30 08:59:33;;;;;;;9.73;7.80;;;;;;;22.44;100.00;100530.56;5027354;28;20203;-70
2022/06/30 09:02:00;;;;;;;19.10;14.32;;;;;;;22.48;100.00;100529.34;5019756;28;20226;-71
2022/06/30 09:04:26;;;;;;;6.35;5.47;;;;;;;22.60;100.00;100535.53;5023598;28;20283;-73
2022/06/30 09:06:52;;;;;;;6.38;4.80;;;;;;;22.65;100.00;100529.81;5023533;28;20219;-73
2022/06/30 09:09:19;;;;;;;5.00;4.45;;;;;;;22.65;100.00;100529.81;5025719;28;20199;-72
2022/06/30 09:11:51;;;;;;;5.57;4.55;;;;;;;22.76;100.00;100528.97;5025975;28;20246;-73
2022/06/30 09:14:40;;;;;;;9.05;5.53;;;;;;;22.77;99.80;100536.00;5023585;28;20294;-73
2022/06/30 09:17:08;;;;;;;5.90;5.30;;;;;;;22.82;99.34;100541.78;5024224;28;20220;-73
2022/06/30 09:19:40;;;;;;;5.03;4.53;;;;;;;23.06;99.22;100531.91;5026196;28;20197;-73
2022/06/30 09:22:09;;;;;;;4.97;4.13;;;;;;;23.30;98.79;100536.19;5024938;28;20585;-73
2022/06/30 09:24:36;;;;;;;5.55;4.57;;;;;;;23.34;96.35;100537.66;5024210;28;20472;-73
2022/06/30 09:27:14;;;;;;;6.28;4.65;;;;;;;23.28;97.62;100535.47;5024942;28;20202;-73
2022/06/30 09:29:53;;;;;;;4.55;4.07;;;;;;;23.35;98.76;100533.16;5025932;28;20191;-73
2022/06/30 09:32:20;;;;;;;6.72;4.55;;;;;;;23.31;95.24;100539.72;5026087;28;20219;-73
2022/06/30 09:34:49;;;;;;;4.97;4.45;;;;;;;23.10;95.41;100535.16;5023392;28;20208;-72
2022/06/30 09:37:18;;;;;;;5.50;5.00;;;;;;;23.19;98.29;100529.09;5024475;28;20224;-73
2022/06/30 09:39:46;;;;;;;5.57;4.97;;;;;;;23.33;100.00;100529.78;5019930;28;20634;-73
2022/06/30 09:42:12;;;;;;;7.47;4.68;;;;;;;23.38;98.76;100528.44;5018204;28;20224;-73
2022/06/30 09:44:39;;;;;;;8.57;4.97;;;;;;;23.46;94.85;100532.28;5026848;28;20204;-73
2022/06/30 09:47:10;;;;;;;6.28;5.40;;;;;;;23.68;97.20;100532.22;5026713;28;20212;-73
2022/06/30 09:49:39;;;;;;;4.95;4.45;;;;;;;23.88;93.51;100530.56;5025350;28;20223;-73
2022/06/30 09:52:15;;;;;;;4.93;4.38;;;;;;;24.00;90.55;100534.88;5022458;28;20220;-73
2022/06/30 09:54:52;;;;;;;7.35;4.93;;;;;;;24.20;91.97;100532.34;5021831;28;20204;-73
2022/06/30 09:57:19;;;;;;;5.40;4.90;;;;;;;24.52;88.66;100536.72;5016793;28;20716;-73
2022/06/30 09:59:45;;;;;;;5.82;4.75;;;;;;;24.73;88.69;100532.25;5022735;28;20203;-73
2022/06/30 10:02:14;;;;;;;7.00;5.13;;;;;;;24.88;88.23;100529.19;5022854;28;20223;-73
2022/06/30 10:04:53;;;;;;;5.35;4.82;;;;;;;24.76;83.22;100533.78;5017909;28;20203;-73
2022/06/30 10:07:21;;;;;;;5.25;4.75;;;;;;;24.80;81.47;100523.69;5018671;28;20722;-73
2022/06/30 10:09:49;;;;;;;7.28;5.28;;;;;;;24.82;85.29;100529.72;5025368;28;20668;-73
2022/06/30 10:12:17;;;;;;;5.15;4.50;;;;;;;25.07;86.16;100528.41;5024532;28;20231;-73
2022/06/30 10:14:44;;;;;;;5.78;4.90;;;;;;;25.06;82.38;100527.56;5020486;28;20685;-73
2022/06/30 10:17:15;;;;;;;4.70;4.30;;;;;;;25.27;84.27;100521.31;5025121;28;20211;-73
2022/06/30 10:19:42;;;;;;;6.60;5.20;;;;;;;25.25;83.54;100528.63;5023621;28;20199;-73
2022/06/30 10:22:08;;;;;;;5.82;4.68;;;;;;;25.16;80.67;100529.44;5026480;28;20229;-73
2022/06/30 10:24:35;;;;;;;5.45;4.95;;;;;;;25.20;80.15;100534.34;5023829;28;20210;-71
2022/06/30 10:27:14;;;;;;;4.93;4.40;;;;;;;25.24;81.62;100535.75;5023139;28;20199;-71
2022/06/30 10:29:46;;;;;;;5.28;4.63;;;;;;;25.32;80.02;100538.59;5019460;28;20200;-71
2022/06/30 10:32:22;;;;;;;5.00;4.50;;;;;;;25.30;80.18;100534.41;5005911;28;20281;-71
2022/06/30 10:34:57;;;;;;;6.15;5.32;;;;;;;25.29;83.16;100538.91;5022020;28;20661;-71
2022/06/30 10:37:32;;;;;;;5.30;4.53;;;;;;;25.38;84.71;100541.69;5024114;28;20642;-71
2022/06/30 10:40:01;;;;;;;5.22;4.72;;;;;;;25.25;81.95;100547.31;5024922;28;20211;-71
2022/06/30 10:42:47;;;;;;;4.78;4.20;;;;;;;25.49;81.67;100545.09;5019480;28;20224;-71
2022/06/30 10:45:36;;;;;;;5.82;5.00;;;;;;;25.63;88.29;100535.84;5019262;28;20214;-71
2022/06/30 10:48:06;;;;;;;7.75;5.55;;;;;;;25.81;82.23;100537.81;5021591;28;20683;-71
2022/06/30 10:50:34;;;;;;;8.15;5.20;;;;;;;25.68;76.44;100543.41;5021933;28;20658;-71
2022/06/30 10:53:01;;;;;;;4.82;4.43;;;;;;;25.79;82.53;100532.59;5014932;28;20234;-71
2022/06/30 10:55:28;;;;;;;5.65;5.15;;;;;;;25.69;80.25;100529.91;5026370;28;20222;-71
2022/06/30 10:58:07;;;;;;;5.97;5.32;;;;;;;25.73;81.22;100533.16;5020426;28;20216;-71
2022/06/30 11:00:59;;;;;;;6.45;5.32;;;;;;;25.86;80.13;100539.06;5024902;28;20219;-71
2022/06/30 11:04:04;;;;;;;7.40;6.40;;;;;;;25.88;78.67;100533.59;5022448;28;20560;-71
2022/06/30 11:07:09;;;;;;;6.80;5.20;;;;;;;26.19;75.21;100533.41;5019649;28;20204;-71
2022/06/30 11:10:17;;;;;;;7.20;5.97;;;;;;;26.26;74.61;100529.19;5020613;28;20203;-71
2022/06/30 11:13:00;;;;;;;7.45;5.85;;;;;;;26.20;71.88;100537.78;5021459;28;20243;-71
2022/06/30 11:15:49;;;;;;;5.97;5.38;;;;;;;26.25;71.72;100527.50;5025913;28;20283;-71
2022/06/30 11:18:16;;;;;;;7.07;5.60;;;;;;;26.21;70.72;100524.28;5026975;28;20212;-71
2022/06/30 11:20:44;;;;;;;8.60;5.65;;;;;;;26.27;71.10;100514.84;5030039;28;20198;-71
2022/06/30 11:23:11;;;;;;;7.93;6.07;;;;;;;26.33;70.39;100503.59;5019735;28;20255;-71
2022/06/30 11:28:25;;;;;;;6.60;6.00;;;;;;;26.46;72.86;100500.59;5017318;28;20204;-71
2022/06/30 11:30:52;;;;;;;6.43;5.45;;;;;;;26.53;72.35;100503.53;5020044;28;20211;-71
2022/06/30 11:33:18;;;;;;;6.57;5.82;;;;;;;26.53;72.36;100504.34;5020111;28;20228;-71
2022/06/30 11:35:46;;;;;;;7.18;5.70;;;;;;;26.66;75.98;100508.56;5028570;28;20293;-71
2022/06/30 11:38:13;;;;;;;7.75;6.57;;;;;;;26.74;74.97;100503.31;5024752;28;20709;-71
2022/06/30 11:40:39;;;;;;;7.38;6.13;;;;;;;26.77;75.30;100500.34;5030559;28;20204;-71